Share

Anapolis, Brazil

Anapolis Air Base (SBAN) Elev 3730 ft | 16.23 °S, 48.96 °W | Change Station

Current weather conditions updated 55 minutes ago

Scattered Clouds
Scattered Clouds
70 °F
Feels Like 70 °F
N
7
Wind Variable Wind from ESE
Sunrise 6:25 AM
Sunset 6:03 PM
Moon Waning Gibbous

Today is forecast to be Cooler than yesterday. Partly cloudy with a stray thunderstorm.

Pressure 30.09 in
Visibility 6.2 miles
Clouds Few 3000 ft
Scattered Clouds 8000 ft
Dew Point 63 °F
Humidity 78%
Rainfall 0.00 in
Snow Depth Not available.
UV 0 out of 16
Pollen Not available.
Air Quality Not available.
Flu Activity Not available.
METAR SBAN 210900Z 12006KT 9999 FEW030 SCT080 21/17 Q1019

More Conditions Fewer Conditions

Pressure 30.09 in
Visibility 6.2 miles
Clouds Few 3000 ft
Scattered Clouds 8000 ft
Dew Point 63 °F
Humidity 78%
Rainfall 0.00 in
Snow Depth Not available.
UV 0 out of 16
Pollen Not available.
Air Quality Not available.
Flu Activity Not available.
METAR SBAN 210900Z 12006KT 9999 FEW030 SCT080 21/17 Q1019

More Conditions Fewer Conditions

10-Day Weather Forecast

Almanac

Astronomy

Apr. 21, 2014 Rise Set
Actual Time 6:25 AM BRT 6:03 PM BRT
Civil Twilight 6:03 AM BRT 6:25 PM BRT
Nautical Twilight 5:37 AM BRT 6:51 PM BRT
Astronomical Twilight 5:12 AM BRT 7:16 PM BRT
Moon 11:59 PM BRT 12:08 PM BRT
Length of Visible Light 12h 22m
Length of Day
11h 38m
Tomorrow will be 0m 48s shorter.
Waning Gibbous, 60% of the Moon is Illuminated
Today
Waning Gibbous
Apr 22
Last Quarter
Apr 29
New
May 6
First Quarter
May 14
Full

Yesterday's Extremes

Country Highs Country Lows

Community

  • Snowy Robin
    Snowy Robin
  • Sun Pillar and Geese
    Sun Pillar and Geese
  • Showers on the Way
    Showers on the Way
  • Easter Morning Fog
    Easter Morning Fog
  • Easter Dance
    Easter Dance

WunderPhotos

Upload Photos

1,703,579 photos uploaded!

WunderBlogs® & News

Nearby

Snow Depth

Not available.

Coastal Water Temperatures

Place Temperature
No Stations Reporting

Earthquake Activity

City Distance Mag. Time & Date
No recent earthquake activity has been reported nearby.
Minimum magnitude displayed is 2.5.

Nearby Weather Stations

There are no personal weather stations in this area.

What do you think?

We're not finished. Please let us know what you like, what you don't like, and what you are still missing.